Hovedside
METAR-TAF:

METAR-TAF

Lufthavner :

Dakar, Senegal

breddegrad: 14-40-16N, lengdegrad: 17-04-01W, høyde over havet: 88 m

Gjeldene værobservasjon

Denne rapporten ble laget for 26 minutter siden, klokken 04:00 UTC
Vind 3 kt fra Vest-nordvest
Temperatur 22°C
Luftfuktighet 88%
Trykk 1009 hPa
Sikt: 8000 m

METAR: GOBD 190400Z 29003KT 8000 NSC 22/20 Q1009 NOSIG

Tid: 04:26 (04:26 UTC)

Varsel

Denne rapporten ble laget for 5 timer og 6 minutter siden, klokken 23:20 UTC
Varsel gyldig fra 19. klokken 00 UTC til 20. klokken 06 UTC
Vind 7 kt fra Vest
Sikt: 8000 m

TAF: GOBD 182320Z 1900/2006 27007KT 8000 NSC

Værobservasjoner og værvarsel for over 4000 flyplasser (METAR- og TAF-rapporter).

Tilgjengelige stasjoner er representert av de røde og gule prikkene på kartet.

Hold musepekeren over prikken for å se navnet på stasjonen.

Klikk så for å se værobservasjoner og -varsler.

For å forandre kartet kan du klikke på den grønne knappen med svart kryss for å zoome inn, på den grønne knappen med strek for å zoome ut, eller på de grønne pilene for å se tilstøtende kart.


METAR-TAF: